Time;durP1;ratioP1;P1;durP2;ratioP2;P2;SDS_P1;SDS_P2;PMS_P1;PMS_P2;Temp;Humidity;BMP_temperature;BMP_pressure;BME280_temperature;BME280_humidity;BME280_pressure;Samples;Min_cycle;Max_cycle;Signal;HPM_P1;HPM_P2
2022/02/09 00:01:30;;;;;;;61.00;18.60;;;3.40;74.00;;;;;;5022450;28;20061;-76
2022/02/09 00:09:30;;;;;;;169.20;22.53;;;3.40;74.20;;;;;;5023468;28;20129;-75
2022/02/09 00:17:46;;;;;;;39.97;15.77;;;3.40;74.20;;;;;;5040341;28;20435;-76
2022/02/09 00:20:39;;;;;;;51.47;16.10;;;3.40;74.20;;;;;;5025109;28;20032;-75
2022/02/09 00:23:35;;;;;;;39.67;16.10;;;3.40;74.30;;;;;;5029105;28;20176;-75
2022/02/09 01:56:22;;;;;;;32.97;14.17;;;3.60;73.50;;;;;;5027970;28;20037;-76
2022/02/09 01:58:49;;;;;;;30.17;15.23;;;3.50;73.20;;;;;;5026501;28;20710;-76
2022/02/09 02:01:15;;;;;;;29.73;15.67;;;3.50;73.70;;;;;;5018389;28;20026;-76
2022/02/09 02:03:41;;;;;;;25.27;14.60;;;3.50;73.60;;;;;;5026642;28;20048;-76
2022/02/09 02:06:07;;;;;;;27.93;14.20;;;3.50;73.80;;;;;;5023376;28;20109;-76
2022/02/09 02:08:33;;;;;;;27.13;15.27;;;3.60;73.90;;;;;;5023510;28;20034;-76
2022/02/09 02:19:06;;;;;;;28.17;16.20;;;3.60;73.60;;;;;;5022237;28;20436;-76
2022/02/09 03:08:57;;;;;;;29.70;15.23;;;3.10;73.10;;;;;;5024295;28;20057;-76
2022/02/09 03:14:13;;;;;;;22.07;13.20;;;3.00;73.20;;;;;;5029663;28;20071;-76
2022/02/09 03:16:44;;;;;;;24.17;13.53;;;3.10;73.40;;;;;;5028597;28;20025;-76
2022/02/09 03:22:52;;;;;;;23.93;13.03;;;3.00;73.40;;;;;;5030514;28;20132;-75
2022/02/09 03:27:31;;;;;;;22.80;13.80;;;3.10;73.30;;;;;;5027916;28;20440;-76
2022/02/09 03:49:27;;;;;;;21.77;13.00;;;3.00;73.50;;;;;;5028660;28;20038;-76
2022/02/09 03:54:27;;;;;;;31.80;14.47;;;3.00;73.30;;;;;;5026039;28;20411;-75
2022/02/09 03:59:24;;;;;;;28.23;14.10;;;2.90;73.50;;;;;;5029678;28;20026;-76
2022/02/09 04:01:51;;;;;;;29.67;14.47;;;2.90;73.60;;;;;;5030174;28;20025;-76
2022/02/09 04:04:17;;;;;;;43.67;14.90;;;3.00;73.40;;;;;;5028507;28;20389;-76
2022/02/09 04:06:45;;;;;;;34.23;15.33;;;3.00;73.30;;;;;;5029509;28;20444;-75
2022/02/09 04:09:15;;;;;;;27.23;14.20;;;2.90;73.20;;;;;;5025193;28;20022;-75
2022/02/09 04:20:22;;;;;;;31.60;14.40;;;2.90;73.70;;;;;;5030257;28;20112;-74
2022/02/09 04:36:10;;;;;;;37.20;14.57;;;2.90;73.60;;;;;;5027259;28;20086;-74
2022/02/09 04:54:25;;;;;;;30.17;13.30;;;2.90;73.70;;;;;;5018527;28;20037;-73
2022/02/09 05:28:42;;;;;;;21.33;12.33;;;3.10;73.50;;;;;;5024752;28;20030;-75
2022/02/09 05:31:09;;;;;;;28.33;13.50;;;3.10;73.20;;;;;;5026148;28;20186;-75
2022/02/09 05:33:35;;;;;;;25.60;13.43;;;3.10;73.20;;;;;;5020002;28;20104;-75
2022/02/09 05:36:01;;;;;;;28.23;13.97;;;3.10;73.40;;;;;;5027693;28;20022;-75
2022/02/09 05:38:26;;;;;;;21.87;13.67;;;3.10;73.40;;;;;;5029950;28;20036;-75
2022/02/09 05:40:52;;;;;;;22.50;12.67;;;3.10;73.40;;;;;;5024568;28;20144;-75
2022/02/09 05:43:18;;;;;;;18.17;11.47;;;3.10;73.30;;;;;;5024175;28;20026;-75
2022/02/09 05:51:40;;;;;;;13.83;9.63;;;3.10;72.90;;;;;;5018919;28;20048;-75
2022/02/09 05:56:42;;;;;;;23.97;11.00;;;3.10;72.80;;;;;;5021650;28;20034;-75
2022/02/09 06:01:49;;;;;;;18.33;11.73;;;3.10;72.70;;;;;;5021796;28;20041;-75
2022/02/09 06:04:15;;;;;;;16.93;10.63;;;3.10;72.50;;;;;;5019638;28;20057;-75
2022/02/09 06:06:40;;;;;;;16.33;11.33;;;3.00;72.50;;;;;;5024952;28;20056;-76
2022/02/09 06:09:08;;;;;;;17.03;10.83;;;3.00;72.80;;;;;;5020181;28;20026;-76
2022/02/09 06:11:44;;;;;;;17.27;11.13;;;3.00;72.80;;;;;;5027613;28;20025;-76
2022/02/09 06:22:03;;;;;;;19.13;10.27;;;2.80;72.70;;;;;;5020732;28;20060;-75
2022/02/09 06:24:29;;;;;;;17.47;10.97;;;2.80;72.80;;;;;;5024449;28;20053;-76
2022/02/09 06:26:54;;;;;;;18.63;11.10;;;2.70;72.80;;;;;;5020114;28;20071;-75
2022/02/09 06:29:20;;;;;;;19.87;11.00;;;2.70;73.00;;;;;;5030329;28;20041;-76
2022/02/09 06:31:48;;;;;;;19.73;10.50;;;2.70;73.00;;;;;;5029596;28;20484;-75
2022/02/09 06:34:18;;;;;;;15.30;10.47;;;2.70;72.90;;;;;;5026796;28;20091;-75
2022/02/09 06:36:51;;;;;;;16.67;10.53;;;2.60;73.20;;;;;;5030168;28;20036;-76
2022/02/09 06:39:19;;;;;;;17.97;11.30;;;2.70;73.20;;;;;;5027448;28;20085;-75
2022/02/09 06:41:45;;;;;;;15.03;10.27;;;2.70;73.00;;;;;;5028733;28;20030;-75
2022/02/09 06:44:11;;;;;;;18.50;9.63;;;2.60;72.80;;;;;;5026827;28;20084;-75
2022/02/09 06:46:38;;;;;;;14.13;10.00;;;2.60;73.10;;;;;;5026872;28;20061;-76
2022/02/09 06:49:07;;;;;;;15.40;10.53;;;2.60;73.10;;;;;;5024834;28;20049;-76
2022/02/09 06:51:36;;;;;;;17.83;10.60;;;2.70;73.10;;;;;;5026611;28;20026;-76
2022/02/09 06:54:11;;;;;;;14.20;10.23;;;2.60;73.00;;;;;;5015666;28;20121;-75
2022/02/09 06:59:28;;;;;;;19.53;9.97;;;2.60;73.00;;;;;;5030574;28;20129;-75
2022/02/09 07:01:54;;;;;;;20.17;10.70;;;2.50;72.90;;;;;;5027367;28;20026;-74
2022/02/09 07:04:19;;;;;;;18.97;10.33;;;2.50;73.10;;;;;;5022733;28;20495;-75
2022/02/09 07:06:45;;;;;;;17.97;10.30;;;2.40;73.20;;;;;;5028553;28;20034;-75
2022/02/09 07:09:11;;;;;;;17.67;9.67;;;2.40;73.40;;;;;;5030465;28;20669;-75
2022/02/09 07:11:36;;;;;;;19.30;10.53;;;2.40;73.40;;;;;;5026597;28;20091;-75
2022/02/09 07:14:02;;;;;;;16.90;9.20;;;2.40;73.40;;;;;;5024588;28;20037;-76
2022/02/09 07:16:29;;;;;;;20.07;9.57;;;2.50;73.20;;;;;;5030046;28;20064;-75
2022/02/09 07:18:56;;;;;;;13.40;9.30;;;2.40;73.20;;;;;;5024268;28;20061;-76
2022/02/09 07:21:29;;;;;;;16.77;10.23;;;2.40;73.20;;;;;;5027843;28;20091;-75
2022/02/09 07:23:57;;;;;;;15.67;10.60;;;2.40;73.00;;;;;;5026729;28;20021;-75
2022/02/09 07:26:42;;;;;;;16.57;10.37;;;2.40;73.20;;;;;;5020277;28;20033;-75
2022/02/09 07:29:08;;;;;;;18.33;10.70;;;2.40;73.30;;;;;;5021015;28;20021;-75
2022/02/09 07:31:34;;;;;;;17.67;10.07;;;2.40;73.10;;;;;;5023776;28;20625;-75
2022/02/09 07:34:00;;;;;;;20.13;10.33;;;2.40;73.10;;;;;;5021795;28;20060;-75
2022/02/09 07:36:31;;;;;;;16.27;9.13;;;2.40;73.00;;;;;;5030243;28;20440;-75
2022/02/09 07:38:58;;;;;;;16.67;9.97;;;2.40;73.00;;;;;;5024637;28;20116;-76
2022/02/09 07:41:24;;;;;;;17.23;11.40;;;2.40;73.20;;;;;;5015179;28;20487;-75
2022/02/09 07:47:02;;;;;;;22.47;13.93;;;2.50;73.00;;;;;;5026761;28;20033;-75
2022/02/09 07:49:22;;;;;;;33.50;17.73;;;2.50;73.10;;;;;;5031122;28;20045;-76
2022/02/09 07:52:11;;;;;;;30.93;16.43;;;2.60;72.90;;;;;;5019658;28;20075;-75
2022/02/09 07:54:38;;;;;;;33.57;17.20;;;2.70;72.80;;;;;;5026723;28;20565;-75
2022/02/09 07:57:05;;;;;;;33.77;18.17;;;2.60;72.70;;;;;;5027554;28;20022;-76
2022/02/09 07:59:31;;;;;;;27.30;15.30;;;2.70;72.70;;;;;;5025023;28;20029;-75
2022/02/09 08:01:56;;;;;;;23.60;15.03;;;2.70;72.50;;;;;;5033441;28;20038;-75
2022/02/09 08:04:22;;;;;;;24.13;14.73;;;2.80;72.50;;;;;;5031378;28;20079;-76
2022/02/09 08:06:48;;;;;;;25.00;15.13;;;2.80;72.60;;;;;;5033509;28;20111;-76
2022/02/09 08:12:01;;;;;;;19.10;10.90;;;2.80;72.20;;;;;;5024520;28;20154;-75
2022/02/09 08:31:48;;;;;;;19.03;12.27;;;2.90;72.30;;;;;;5035865;28;20126;-76
2022/02/09 08:33:34;;;;;;;15.63;10.73;;;2.90;72.10;;;;;;5026899;28;20548;-75
2022/02/09 08:36:00;;;;;;;15.73;11.23;;;3.00;72.10;;;;;;5021736;28;20037;-75
2022/02/09 08:38:29;;;;;;;16.27;11.27;;;3.00;71.90;;;;;;5031354;28;20408;-76
2022/02/09 08:40:56;;;;;;;16.10;10.57;;;3.00;72.00;;;;;;5029613;28;20140;-75
2022/02/09 08:43:22;;;;;;;16.70;10.90;;;3.00;71.80;;;;;;5021295;28;20369;-75
2022/02/09 08:45:49;;;;;;;15.10;10.83;;;3.00;71.70;;;;;;5021998;28;20033;-75
2022/02/09 08:48:15;;;;;;;15.17;10.00;;;3.10;71.70;;;;;;5022709;28;20053;-75
2022/02/09 08:50:41;;;;;;;16.03;11.10;;;3.30;71.50;;;;;;5026717;28;20540;-75
2022/02/09 08:53:07;;;;;;;19.87;11.87;;;3.50;71.20;;;;;;5017004;28;20041;-76
2022/02/09 08:55:34;;;;;;;15.57;10.93;;;3.80;71.20;;;;;;5024598;28;20026;-75
2022/02/09 08:58:00;;;;;;;11.37;8.77;;;4.60;71.70;;;;;;5025953;28;20137;-76
2022/02/09 09:00:30;;;;;;;12.10;8.13;;;5.60;72.10;;;;;;5029161;28;20021;-76
2022/02/09 09:08:25;;;;;;;9.90;8.13;;;8.00;70.60;;;;;;5022546;28;20037;-76
2022/02/09 10:33:03;;;;;;;3.63;2.90;;;10.30;55.90;;;;;;5026244;28;20822;-77
2022/02/09 10:35:34;;;;;;;3.47;2.40;;;10.20;56.00;;;;;;5032095;28;20021;-77
2022/02/09 10:38:23;;;;;;;4.83;3.47;;;10.30;56.00;;;;;;5026279;28;20376;-78
2022/02/09 10:40:52;;;;;;;5.83;4.23;;;10.40;55.00;;;;;;5022727;28;20036;-78
2022/02/09 10:43:33;;;;;;;7.03;5.10;;;10.50;55.20;;;;;;5026854;28;20049;-77
2022/02/09 10:46:17;;;;;;;8.43;4.40;;;10.40;54.90;;;;;;5028852;28;20417;-75
2022/02/09 10:49:02;;;;;;;7.97;3.90;;;10.60;54.80;;;;;;5029306;28;20049;-76
2022/02/09 10:54:21;;;;;;;6.83;4.67;;;10.70;54.60;;;;;;5031561;28;20029;-78
2022/02/09 10:56:51;;;;;;;7.43;5.07;;;11.00;53.90;;;;;;5021572;28;20505;-78
2022/02/09 10:59:20;;;;;;;6.87;4.03;;;11.10;54.20;;;;;;5025063;28;20061;-78
2022/02/09 11:01:46;;;;;;;7.63;4.50;;;11.20;54.20;;;;;;5022294;28;20171;-78
2022/02/09 11:04:13;;;;;;;9.20;4.30;;;11.20;54.40;;;;;;5054934;28;20450;-78
2022/02/09 11:06:43;;;;;;;7.13;4.23;;;11.30;53.50;;;;;;5030806;28;20029;-75
2022/02/09 11:09:11;;;;;;;7.90;5.00;;;11.40;53.50;;;;;;5012247;28;20026;-76
2022/02/09 11:11:39;;;;;;;5.70;4.50;;;11.40;53.00;;;;;;5023283;28;20176;-75
2022/02/09 11:14:11;;;;;;;5.80;3.97;;;11.30;52.60;;;;;;5028015;28;20025;-76
2022/02/09 11:16:37;;;;;;;6.78;4.55;;;11.20;52.50;;;;;;5014300;28;20025;-75
2022/02/09 11:19:03;;;;;;;6.03;4.07;;;10.90;52.80;;;;;;5029816;28;20060;-76
2022/02/09 11:21:36;;;;;;;9.70;4.20;;;11.00;53.30;;;;;;5027347;28;20552;-75
2022/02/09 11:24:14;;;;;;;;;;;11.00;52.90;;;;;;5032117;28;20040;-76
2022/02/09 11:26:56;;;;;;;10.33;6.07;;;11.20;53.30;;;;;;5024862;28;19989;-75
2022/02/09 11:29:40;;;;;;;8.93;5.03;;;11.20;53.30;;;;;;5028876;28;20017;-76
2022/02/09 11:54:43;;;;;;;5.67;3.53;;;11.90;50.20;;;;;;5126544;27;20031;-73
2022/02/09 12:09:25;;;;;;;6.97;3.07;;;11.70;50.90;;;;;;5131893;27;20047;-73
2022/02/09 12:11:52;;;;;;;13.52;6.00;;;11.80;51.10;;;;;;5129451;27;20031;-73
2022/02/09 12:14:49;;;;;;;5.07;3.23;;;12.00;51.00;;;;;;5122072;27;20011;-73
2022/02/09 12:17:29;;;;;;;9.63;3.20;;;12.10;50.60;;;;;;5128680;27;20110;-73
2022/02/09 12:23:04;;;;;;;6.10;3.63;;;12.00;50.40;;;;;;5128004;27;20031;-73
2022/02/09 12:25:47;;;;;;;6.40;3.10;;;11.90;50.40;;;;;;5124150;28;20072;-73
2022/02/09 12:28:34;;;;;;;4.37;2.70;;;11.80;51.00;;;;;;5128088;27;20028;-72
2022/02/09 12:31:12;;;;;;;3.40;2.00;;;11.90;51.20;;;;;;5123450;27;20022;-72
2022/02/09 12:33:51;;;;;;;3.60;2.07;;;11.90;50.90;;;;;;5122823;28;20033;-73
2022/02/09 12:36:20;;;;;;;5.30;2.40;;;11.80;51.10;;;;;;5132725;27;20030;-72
2022/02/09 12:38:48;;;;;;;5.60;2.33;;;11.90;51.30;;;;;;5128115;27;20053;-74
2022/02/09 12:41:24;;;;;;;3.53;2.10;;;11.90;51.10;;;;;;5129067;27;20037;-72
2022/02/09 12:43:57;;;;;;;2.80;2.10;;;12.00;50.70;;;;;;5138195;27;20114;-72
2022/02/09 12:46:29;;;;;;;3.53;2.43;;;12.00;50.80;;;;;;5140670;27;20114;-72
2022/02/09 12:49:03;;;;;;;3.67;2.57;;;12.00;50.60;;;;;;5128509;27;20019;-72
2022/02/09 12:51:29;;;;;;;3.33;2.63;;;12.00;50.60;;;;;;5124825;27;20092;-72
2022/02/09 12:53:56;;;;;;;7.83;3.50;;;12.00;50.20;;;;;;5124153;27;20031;-72
2022/02/09 12:56:28;;;;;;;3.73;2.53;;;12.00;49.80;;;;;;5129165;27;20083;-73
2022/02/09 12:59:05;;;;;;;2.35;1.95;;;11.80;49.90;;;;;;5126820;27;20030;-72
2022/02/09 13:01:42;;;;;;;4.30;2.20;;;11.80;50.20;;;;;;5137920;27;20087;-73
2022/02/09 13:04:08;;;;;;;5.13;2.00;;;11.80;49.90;;;;;;5129947;27;20036;-72
2022/02/09 13:06:34;;;;;;;2.50;1.93;;;11.70;50.20;;;;;;5137602;27;20046;-72
2022/02/09 13:09:00;;;;;;;5.33;1.87;;;11.70;50.20;;;;;;5140335;27;20031;-72
2022/02/09 13:11:32;;;;;;;2.50;2.00;;;11.60;50.40;;;;;;5126981;27;20031;-73
2022/02/09 13:14:12;;;;;;;4.73;2.07;;;11.50;50.60;;;;;;5133432;27;20050;-72
2022/02/09 13:16:58;;;;;;;3.17;1.83;;;11.60;50.90;;;;;;5123642;27;20035;-72
2022/02/09 14:10:21;;;;;;;3.93;3.00;;;11.50;49.80;;;;;;5129830;27;20079;-73
2022/02/09 14:33:09;;;;;;;8.53;4.53;;;10.90;52.00;;;;;;5127608;27;20104;-71
2022/02/09 14:58:30;;;;;;;4.53;2.77;;;10.70;53.00;;;;;;5132447;27;20510;-71
2022/02/09 15:13:31;;;;;;;10.33;6.13;;;10.40;54.90;;;;;;5130399;27;20102;-72
2022/02/09 15:16:49;;;;;;;6.20;4.13;;;10.30;55.30;;;;;;5126364;27;20395;-72
2022/02/09 15:23:55;;;;;;;3.80;2.60;;;10.20;56.60;;;;;;5127060;27;20763;-71
2022/02/09 15:26:22;;;;;;;6.13;3.50;;;10.00;56.80;;;;;;5145024;27;20117;-71
2022/02/09 15:28:50;;;;;;;6.57;3.37;;;9.90;57.10;;;;;;5130522;27;20344;-71
2022/02/09 15:31:30;;;;;;;6.10;3.40;;;9.90;57.90;;;;;;5127822;27;20019;-71
2022/02/09 15:34:13;;;;;;;3.90;2.23;;;9.80;57.70;;;;;;5122784;27;20046;-71
2022/02/09 15:39:32;;;;;;;6.30;2.23;;;9.60;58.10;;;;;;5098111;27;20058;-70
2022/02/09 16:06:40;;;;;;;6.07;3.57;;;8.60;60.30;;;;;;5120839;28;20038;-70
2022/02/09 16:22:31;;;;;;;9.17;5.90;;;8.30;61.20;;;;;;5127978;27;20110;-72
2022/02/09 16:46:39;;;;;;;16.20;9.33;;;7.60;61.80;;;;;;5133975;27;20066;-70
2022/02/09 16:51:38;;;;;;;12.70;9.20;;;7.50;62.10;;;;;;5129323;27;20484;-70
2022/02/09 16:54:27;;;;;;;17.83;11.30;;;7.50;62.10;;;;;;5127481;27;20023;-70
2022/02/09 17:18:49;;;;;;;8.33;5.33;;;7.00;62.60;;;;;;5128555;27;20020;-70
2022/02/09 17:21:21;;;;;;;6.37;4.80;;;6.90;62.90;;;;;;5149533;27;20030;-70
2022/02/09 17:23:48;;;;;;;7.00;5.27;;;6.80;63.00;;;;;;5133553;27;20023;-71
2022/02/09 17:26:15;;;;;;;7.00;4.90;;;6.70;63.10;;;;;;5151962;27;20035;-71
2022/02/09 17:28:42;;;;;;;7.97;5.47;;;6.60;63.50;;;;;;5139998;27;20478;-70
2022/02/09 17:31:25;;;;;;;6.70;4.90;;;6.70;63.90;;;;;;5119877;27;20376;-70
2022/02/09 17:55:48;;;;;;;9.93;7.20;;;6.40;63.80;;;;;;5139219;27;20076;-71
2022/02/09 17:58:17;;;;;;;10.20;8.50;;;6.40;63.80;;;;;;5149830;27;20022;-71
2022/02/09 18:00:44;;;;;;;10.07;6.33;;;6.40;64.10;;;;;;5134559;27;20019;-71
2022/02/09 18:03:11;;;;;;;12.30;7.63;;;6.30;63.80;;;;;;5150052;27;20033;-72
2022/02/09 18:08:11;;;;;;;9.37;6.97;;;6.30;64.10;;;;;;5123499;27;20363;-71
2022/02/09 18:29:26;;;;;;;8.90;5.90;;;6.10;65.00;;;;;;5148878;27;20069;-72
2022/02/09 18:34:45;;;;;;;11.90;7.10;;;5.80;64.90;;;;;;5149053;27;20026;-71
2022/02/09 19:03:38;;;;;;;14.70;9.10;;;5.50;65.60;;;;;;5149502;27;20079;-71
2022/02/09 19:06:18;;;;;;;15.87;9.50;;;5.40;65.70;;;;;;5145176;27;20077;-72
2022/02/09 19:14:36;;;;;;;7.00;4.93;;;5.50;65.50;;;;;;5124866;27;20062;-71
2022/02/09 19:17:19;;;;;;;8.23;5.70;;;5.50;65.50;;;;;;5131243;27;20034;-71
2022/02/09 19:19:58;;;;;;;6.67;4.43;;;5.50;65.60;;;;;;5114466;28;20034;-72
2022/02/09 19:48:42;;;;;;;13.75;8.43;;;5.00;66.30;;;;;;5111288;28;20510;-72
2022/02/09 19:56:23;;;;;;;19.27;12.20;;;4.90;66.70;;;;;;5137271;27;20027;-72
2022/02/09 20:01:19;;;;;;;16.47;10.00;;;4.90;66.70;;;;;;5141922;27;20034;-73
2022/02/09 20:03:45;;;;;;;13.47;9.60;;;4.90;66.50;;;;;;5148656;27;20027;-72
2022/02/09 20:06:11;;;;;;;13.63;8.33;;;4.90;66.40;;;;;;5144439;27;20036;-72
2022/02/09 20:08:38;;;;;;;25.33;11.63;;;4.90;66.40;;;;;;5153358;27;20506;-72
2022/02/09 20:11:09;;;;;;;18.97;9.77;;;4.90;66.50;;;;;;5147767;27;20027;-72
2022/02/09 20:13:35;;;;;;;16.87;8.67;;;4.90;66.30;;;;;;5135535;27;20031;-72
2022/02/09 20:16:02;;;;;;;13.60;7.97;;;4.70;66.30;;;;;;5127831;27;20022;-72
2022/02/09 20:18:28;;;;;;;13.27;7.60;;;4.70;66.50;;;;;;5137481;27;20027;-72
2022/02/09 20:20:57;;;;;;;14.93;7.57;;;4.70;66.50;;;;;;5118887;27;20034;-72
2022/02/09 20:23:24;;;;;;;12.27;6.60;;;4.70;66.60;;;;;;5124156;27;20417;-72
2022/02/09 20:25:50;;;;;;;12.23;7.27;;;4.70;66.60;;;;;;5152602;27;20046;-72
2022/02/09 20:28:17;;;;;;;13.40;7.30;;;4.60;66.50;;;;;;5152766;27;20031;-71
2022/02/09 20:30:48;;;;;;;13.10;7.00;;;4.60;66.80;;;;;;5132176;27;20391;-72
2022/02/09 20:33:18;;;;;;;17.83;7.90;;;4.60;67.00;;;;;;5127785;27;20036;-72
2022/02/09 20:35:45;;;;;;;15.23;8.17;;;4.70;67.00;;;;;;5146075;27;20030;-72
2022/02/09 20:38:17;;;;;;;15.50;8.57;;;4.60;66.90;;;;;;5140699;27;20156;-72
2022/02/09 20:40:52;;;;;;;17.80;8.90;;;4.60;66.90;;;;;;5129640;27;20034;-72
2022/02/09 20:43:20;;;;;;;12.30;7.10;;;4.60;66.80;;;;;;5130304;27;20077;-72
2022/02/09 20:45:51;;;;;;;16.47;7.87;;;4.50;66.80;;;;;;5114720;27;20078;-71
2022/02/09 20:48:23;;;;;;;9.53;5.70;;;4.50;67.00;;;;;;5154440;27;20031;-72
2022/02/09 20:50:49;;;;;;;11.83;5.53;;;4.50;67.10;;;;;;5152135;27;20106;-72
2022/02/09 20:53:15;;;;;;;11.50;6.67;;;4.40;67.40;;;;;;5153671;27;20023;-72
2022/02/09 20:55:42;;;;;;;17.53;8.40;;;4.40;67.50;;;;;;5126383;27;20032;-71
2022/02/09 20:58:08;;;;;;;13.10;7.63;;;4.40;67.50;;;;;;5120971;27;20411;-72
2022/02/09 21:00:41;;;;;;;12.17;7.53;;;4.40;67.50;;;;;;5124666;27;20414;-72
2022/02/09 21:16:39;;;;;;;10.10;5.27;;;4.40;67.50;;;;;;5132016;27;20076;-71
2022/02/09 21:27:31;;;;;;;9.53;5.10;;;4.40;67.50;;;;;;5128957;27;20044;-72
2022/02/09 21:54:42;;;;;;;9.10;5.80;;;4.10;67.10;;;;;;5024816;28;20038;-73
2022/02/09 22:30:18;;;;;;;52.77;11.23;;;3.60;67.70;;;;;;5130287;27;20047;-71
2022/02/09 22:45:36;;;;;;;76.97;16.07;;;3.40;69.30;;;;;;5127912;27;20061;-72
2022/02/09 22:50:55;;;;;;;62.20;16.57;;;3.30;69.60;;;;;;5129097;27;20030;-71
2022/02/09 22:56:24;;;;;;;38.33;14.60;;;3.30;70.40;;;;;;5093547;27;20043;-72
2022/02/09 22:58:50;;;;;;;38.67;13.43;;;3.40;70.20;;;;;;5119853;27;20410;-71
2022/02/09 23:01:23;;;;;;;38.43;12.73;;;3.40;70.20;;;;;;5133229;27;20022;-70
2022/02/09 23:11:48;;;;;;;35.43;12.87;;;3.30;70.20;;;;;;5131250;27;20059;-71
2022/02/09 23:17:57;;;;;;;16.50;11.23;;;3.40;70.90;;;;;;5130149;27;20035;-72
